CST,Max TemperatureF,Mean TemperatureF,Min TemperatureF,Max Dew PointF,MeanDew PointF,Min DewpointF,Max Humidity, Mean Humidity, Min Humidity, Max Sea Level PressureIn, Mean Sea Level PressureIn, Min Sea Level PressureIn, Max VisibilityMiles, Mean VisibilityMiles, Min VisibilityMiles, Max Wind SpeedMPH, Mean Wind SpeedMPH, Max Gust SpeedMPH,PrecipitationIn, CloudCover, Events, WindDirDegrees
2012-11-1,56,48,38,40,34,27,72,59,40,30.02,29.97,29.94,10,10,10,18,9,22,0.00,1,,320
2012-11-2,50,42,34,32,30,28,79,64,46,30.10,30.06,30.02,10,10,10,16,8,18,0.00,1,,73
2012-11-3,54,45,36,33,31,26,79,58,35,30.21,30.17,30.10,10,10,10,8,5,,0.00,5,,34
2012-11-4,51,46,42,42,37,31,87,73,60,30.21,30.15,30.08,10,9,5,14,4,,0.06,7,Rain,125
2012-11-5,46,44,42,40,39,37,90,82,73,30.17,30.11,30.05,10,6,3,16,11,21,0.13,8,Rain,128
2012-11-6,53,48,42,41,38,32,87,71,54,30.04,29.94,29.89,10,8,2,22,12,29,0.00,8,Rain,276
2012-11-7,48,42,35,38,34,32,85,72,55,30.16,30.10,29.99,10,10,5,18,10,25,0.00,5,Rain,358
2012-11-8,63,49,35,38,35,32,87,67,33,30.10,29.99,29.91,10,10,10,20,9,25,0.00,0,,145
2012-11-9,61,50,40,49,43,36,87,73,55,29.94,29.87,29.78,10,10,10,20,9,23,0.00,2,,101
2012-11-10,79,67,55,58,53,49,89,64,39,29.78,29.65,29.56,10,10,7,25,15,36,0.00,1,Rain,167
2012-11-11,69,47,25,57,32,15,90,76,53,30.09,29.86,29.63,10,8,2,21,15,28,0.43,5,Rain,281
2012-11-12,37,30,24,20,17,13,74,59,36,30.37,30.21,30.09,10,10,10,23,13,33,0.00,0,,267
2012-11-13,50,36,22,33,25,18,80,63,38,30.41,30.36,30.31,10,10,10,14,7,16,0.00,1,,170
2012-11-14,59,48,37,33,30,21,81,53,24,30.34,30.28,30.23,10,10,10,17,8,23,0.00,1,,191
2012-11-15,61,48,34,36,32,28,82,55,33,30.42,30.29,30.22,10,10,10,14,9,17,0.00,2,,271
2012-11-16,55,41,27,32,29,22,83,67,33,30.47,30.41,30.36,10,10,10,13,7,,0.00,0,,118
2012-11-17,63,48,32,38,32,28,87,62,28,30.37,30.31,30.26,10,10,7,21,8,25,0.00,0,,152
2012-11-18,63,52,42,41,32,29,68,46,27,30.26,30.18,30.13,10,10,10,20,12,24,0.03,4,Rain,155
2012-11-19,63,53,43,46,42,37,81,68,52,30.15,30.06,30.02,10,10,10,14,7,20,0.03,2,Rain,190
2012-11-20,61,50,38,41,37,32,87,65,34,30.20,30.15,30.06,10,9,4,13,7,16,0.00,0,,275
2012-11-21,73,60,46,43,39,34,75,51,24,30.14,30.02,29.86,10,10,10,18,11,29,0.00,0,,196
2012-11-22,67,53,38,46,37,21,64,53,29,30.13,29.87,29.72,10,10,10,28,16,45,0.00,1,,247
2012-11-23,38,30,21,21,15,13,71,54,41,30.39,30.32,30.14,10,10,10,29,19,39,0.00,2,,305
2012-11-24,37,28,19,22,17,13,78,61,43,30.37,30.11,29.84,10,10,10,16,7,20,0.00,1,,180
2012-11-25,40,36,32,28,25,22,75,62,52,30.17,29.98,29.83,10,10,10,16,9,21,0.00,2,,332
2012-11-26,33,25,17,24,13,7,70,56,39,30.43,30.34,30.18,10,10,10,18,8,22,0.00,3,,344
2012-11-27,39,27,15,20,13,8,76,57,36,30.42,30.29,30.17,10,10,10,16,6,21,0.00,1,,222
2012-11-28,47,35,23,28,23,19,85,63,36,30.40,30.27,30.13,10,10,7,12,6,,0.00,0,,184
2012-11-29,54,43,32,35,31,27,84,68,47,30.12,30.02,29.96,10,10,7,10,6,,0.00,0,,165
2012-11-30,52,42,31,37,33,28,90,78,55,30.08,30.03,29.96,10,7,3,12,5,,0.00,0,,79